sensor_id;sensor_type;location;lat;lon;timestamp;pressure;altitude;pressure_sealevel;temperature;humidity
3544;BME280;1786;52.870;9.578;2022-07-19T00:00:06;101028.63;;;32.80;39.39
3544;BME280;1786;52.870;9.578;2022-07-19T00:02:37;101024.81;;;32.81;39.88
3544;BME280;1786;52.870;9.578;2022-07-19T00:05:05;101027.69;;;32.74;39.54
3544;BME280;1786;52.870;9.578;2022-07-19T00:07:32;101036.34;;;32.71;39.72
3544;BME280;1786;52.870;9.578;2022-07-19T00:09:59;101026.09;;;32.66;40.00
3544;BME280;1786;52.870;9.578;2022-07-19T00:12:25;101026.97;;;32.79;39.31
3544;BME280;1786;52.870;9.578;2022-07-19T00:14:52;101029.25;;;32.82;40.05
3544;BME280;1786;52.870;9.578;2022-07-19T00:17:19;101023.91;;;32.87;39.28
3544;BME280;1786;52.870;9.578;2022-07-19T00:19:46;101020.56;;;32.85;39.70
3544;BME280;1786;52.870;9.578;2022-07-19T00:22:13;101016.59;;;32.69;39.50
3544;BME280;1786;52.870;9.578;2022-07-19T00:24:40;101019.38;;;32.50;40.32
3544;BME280;1786;52.870;9.578;2022-07-19T00:27:06;101013.84;;;32.39;40.45
3544;BME280;1786;52.870;9.578;2022-07-19T00:29:33;101018.56;;;32.31;40.50
3544;BME280;1786;52.870;9.578;2022-07-19T00:32:00;101026.00;;;32.24;40.70
3544;BME280;1786;52.870;9.578;2022-07-19T00:34:27;101025.88;;;32.19;40.62
3544;BME280;1786;52.870;9.578;2022-07-19T00:36:54;101023.31;;;32.06;40.57
3544;BME280;1786;52.870;9.578;2022-07-19T00:39:20;101025.25;;;32.17;40.21
3544;BME280;1786;52.870;9.578;2022-07-19T00:41:47;101025.88;;;32.19;40.72
3544;BME280;1786;52.870;9.578;2022-07-19T00:44:14;101022.00;;;32.08;40.21
3544;BME280;1786;52.870;9.578;2022-07-19T00:46:41;101017.69;;;32.01;40.28
3544;BME280;1786;52.870;9.578;2022-07-19T00:49:08;101026.84;;;31.88;40.75
3544;BME280;1786;52.870;9.578;2022-07-19T00:51:38;101016.81;;;31.82;40.82
3544;BME280;1786;52.870;9.578;2022-07-19T00:54:08;101026.25;;;31.86;41.16
3544;BME280;1786;52.870;9.578;2022-07-19T00:56:34;101028.97;;;31.86;41.10
3544;BME280;1786;52.870;9.578;2022-07-19T00:59:03;101032.84;;;31.78;41.01
3544;BME280;1786;52.870;9.578;2022-07-19T01:01:30;101021.44;;;31.81;40.57
3544;BME280;1786;52.870;9.578;2022-07-19T01:03:58;101021.66;;;31.80;40.81
3544;BME280;1786;52.870;9.578;2022-07-19T01:06:26;101024.09;;;31.69;40.45
3544;BME280;1786;52.870;9.578;2022-07-19T01:08:52;101020.53;;;31.69;40.66
3544;BME280;1786;52.870;9.578;2022-07-19T01:11:19;101029.94;;;31.73;40.74
3544;BME280;1786;52.870;9.578;2022-07-19T01:13:47;101028.03;;;31.55;40.89
3544;BME280;1786;52.870;9.578;2022-07-19T01:16:14;101026.81;;;31.51;41.07
3544;BME280;1786;52.870;9.578;2022-07-19T01:18:40;101030.22;;;31.46;41.16
3544;BME280;1786;52.870;9.578;2022-07-19T01:21:07;101026.97;;;31.31;41.13
3544;BME280;1786;52.870;9.578;2022-07-19T01:23:33;101037.44;;;31.34;41.45
3544;BME280;1786;52.870;9.578;2022-07-19T01:26:00;101034.06;;;31.39;41.71
3544;BME280;1786;52.870;9.578;2022-07-19T01:28:27;101025.72;;;31.27;41.65
3544;BME280;1786;52.870;9.578;2022-07-19T01:30:53;101031.97;;;31.34;41.92
3544;BME280;1786;52.870;9.578;2022-07-19T01:33:20;101032.03;;;31.27;41.70
3544;BME280;1786;52.870;9.578;2022-07-19T01:35:46;101034.53;;;31.29;41.89
3544;BME280;1786;52.870;9.578;2022-07-19T01:38:13;101033.69;;;31.29;41.73
3544;BME280;1786;52.870;9.578;2022-07-19T01:40:40;101038.00;;;31.18;41.93
3544;BME280;1786;52.870;9.578;2022-07-19T01:43:07;101040.78;;;31.11;41.69
3544;BME280;1786;52.870;9.578;2022-07-19T01:45:34;101029.22;;;31.09;42.08
3544;BME280;1786;52.870;9.578;2022-07-19T01:48:00;101027.63;;;31.01;42.23
3544;BME280;1786;52.870;9.578;2022-07-19T01:50:27;101031.59;;;31.05;41.90
3544;BME280;1786;52.870;9.578;2022-07-19T01:52:54;101028.63;;;30.75;42.08
3544;BME280;1786;52.870;9.578;2022-07-19T01:55:21;101022.91;;;30.77;42.06
3544;BME280;1786;52.870;9.578;2022-07-19T01:57:48;101020.47;;;30.69;42.54
3544;BME280;1786;52.870;9.578;2022-07-19T02:00:16;101024.78;;;30.90;41.80
3544;BME280;1786;52.870;9.578;2022-07-19T02:02:43;101029.84;;;30.86;41.75
3544;BME280;1786;52.870;9.578;2022-07-19T02:05:10;101025.63;;;30.90;42.08
3544;BME280;1786;52.870;9.578;2022-07-19T02:07:38;101028.44;;;31.02;41.81
3544;BME280;1786;52.870;9.578;2022-07-19T02:10:06;101022.66;;;30.92;41.50
3544;BME280;1786;52.870;9.578;2022-07-19T02:12:33;101024.78;;;30.90;42.18
3544;BME280;1786;52.870;9.578;2022-07-19T02:15:00;101028.16;;;30.85;42.03
3544;BME280;1786;52.870;9.578;2022-07-19T02:17:26;101023.16;;;30.82;41.95
3544;BME280;1786;52.870;9.578;2022-07-19T02:19:53;101031.09;;;30.77;41.52
3544;BME280;1786;52.870;9.578;2022-07-19T02:22:20;101025.66;;;30.77;41.72
3544;BME280;1786;52.870;9.578;2022-07-19T02:24:47;101025.31;;;30.67;42.31
3544;BME280;1786;52.870;9.578;2022-07-19T02:27:14;101022.75;;;30.72;42.17
3544;BME280;1786;52.870;9.578;2022-07-19T02:29:40;101021.53;;;30.68;41.77
3544;BME280;1786;52.870;9.578;2022-07-19T02:32:08;101022.84;;;30.58;42.29
3544;BME280;1786;52.870;9.578;2022-07-19T02:34:35;101028.75;;;30.55;42.39
3544;BME280;1786;52.870;9.578;2022-07-19T02:37:02;101021.19;;;30.51;42.26
3544;BME280;1786;52.870;9.578;2022-07-19T02:39:29;101024.94;;;30.56;41.88
3544;BME280;1786;52.870;9.578;2022-07-19T02:41:56;101025.00;;;30.50;42.44
3544;BME280;1786;52.870;9.578;2022-07-19T02:44:23;101020.00;;;30.47;42.23
3544;BME280;1786;52.870;9.578;2022-07-19T02:46:49;101026.91;;;30.43;42.20
3544;BME280;1786;52.870;9.578;2022-07-19T02:49:16;101021.19;;;30.51;41.78
3544;BME280;1786;52.870;9.578;2022-07-19T02:51:42;101018.44;;;30.57;42.32
3544;BME280;1786;52.870;9.578;2022-07-19T02:54:09;101019.31;;;30.51;42.26
3544;BME280;1786;52.870;9.578;2022-07-19T02:56:36;101020.44;;;30.37;42.07
3544;BME280;1786;52.870;9.578;2022-07-19T02:59:04;101021.13;;;30.26;42.55
3544;BME280;1786;52.870;9.578;2022-07-19T03:01:31;101018.56;;;30.31;42.67
3544;BME280;1786;52.870;9.578;2022-07-19T03:03:59;101023.19;;;30.30;42.68
3544;BME280;1786;52.870;9.578;2022-07-19T03:06:26;101023.19;;;30.37;42.22
3544;BME280;1786;52.870;9.578;2022-07-19T03:08:53;101022.56;;;30.28;42.18
3544;BME280;1786;52.870;9.578;2022-07-19T03:11:20;101025.72;;;30.18;42.88
3544;BME280;1786;52.870;9.578;2022-07-19T03:13:47;101028.03;;;30.22;42.99
3544;BME280;1786;52.870;9.578;2022-07-19T03:16:14;101032.25;;;30.17;42.48
3544;BME280;1786;52.870;9.578;2022-07-19T03:18:40;101032.25;;;30.17;42.27
3544;BME280;1786;52.870;9.578;2022-07-19T03:21:07;101024.28;;;30.16;42.17
3544;BME280;1786;52.870;9.578;2022-07-19T03:23:35;101026.41;;;30.07;42.51
3544;BME280;1786;52.870;9.578;2022-07-19T03:26:04;101019.72;;;30.03;42.99
3544;BME280;1786;52.870;9.578;2022-07-19T03:28:31;101027.25;;;30.08;42.93
3544;BME280;1786;52.870;9.578;2022-07-19T03:30:57;101030.59;;;30.10;42.97
3544;BME280;1786;52.870;9.578;2022-07-19T03:33:24;101027.25;;;30.08;42.52
3544;BME280;1786;52.870;9.578;2022-07-19T03:35:51;101024.06;;;30.17;42.64
3544;BME280;1786;52.870;9.578;2022-07-19T03:38:17;101021.72;;;30.21;42.44
3544;BME280;1786;52.870;9.578;2022-07-19T03:40:45;101023.19;;;30.30;42.38
3544;BME280;1786;52.870;9.578;2022-07-19T03:43:14;101025.47;;;30.40;42.15
3544;BME280;1786;52.870;9.578;2022-07-19T03:45:43;101028.75;;;30.49;42.39
3544;BME280;1786;52.870;9.578;2022-07-19T03:48:11;101030.47;;;30.43;42.46
3544;BME280;1786;52.870;9.578;2022-07-19T03:50:38;101022.50;;;30.41;42.71
3544;BME280;1786;52.870;9.578;2022-07-19T03:53:05;101029.84;;;30.41;42.12
3544;BME280;1786;52.870;9.578;2022-07-19T03:55:31;101033.66;;;30.40;42.09
3544;BME280;1786;52.870;9.578;2022-07-19T03:57:58;101029.84;;;30.41;42.39
3544;BME280;1786;52.870;9.578;2022-07-19T04:00:25;101029.19;;;30.52;42.14
3544;BME280;1786;52.870;9.578;2022-07-19T04:02:52;101035.09;;;30.43;42.78
3544;BME280;1786;52.870;9.578;2022-07-19T04:05:19;101037.19;;;30.47;42.80
3544;BME280;1786;52.870;9.578;2022-07-19T04:07:46;101037.38;;;30.46;42.78
3544;BME280;1786;52.870;9.578;2022-07-19T04:10:13;101035.31;;;30.41;43.25
3544;BME280;1786;52.870;9.578;2022-07-19T04:12:39;101034.16;;;30.62;43.11
3544;BME280;1786;52.870;9.578;2022-07-19T04:15:07;101032.00;;;30.71;42.37
3544;BME280;1786;52.870;9.578;2022-07-19T04:17:33;101032.00;;;30.71;42.58
3544;BME280;1786;52.870;9.578;2022-07-19T04:20:00;101030.28;;;30.76;42.80
3544;BME280;1786;52.870;9.578;2022-07-19T04:22:27;101036.09;;;30.93;42.67
3544;BME280;1786;52.870;9.578;2022-07-19T04:24:54;101032.13;;;31.14;42.34
3544;BME280;1786;52.870;9.578;2022-07-19T04:27:21;101042.09;;;31.27;41.85
3544;BME280;1786;52.870;9.578;2022-07-19T04:29:48;101039.13;;;31.35;42.35
3544;BME280;1786;52.870;9.578;2022-07-19T04:32:15;101038.69;;;31.38;42.09
3544;BME280;1786;52.870;9.578;2022-07-19T04:34:46;101035.78;;;31.58;41.53
3544;BME280;1786;52.870;9.578;2022-07-19T04:37:13;101036.75;;;31.64;42.07
3544;BME280;1786;52.870;9.578;2022-07-19T04:39:40;101032.84;;;31.78;41.90
3544;BME280;1786;52.870;9.578;2022-07-19T04:42:07;101032.06;;;31.89;41.31
3544;BME280;1786;52.870;9.578;2022-07-19T04:44:34;101033.16;;;32.07;41.29
3544;BME280;1786;52.870;9.578;2022-07-19T04:47:00;101035.94;;;32.37;41.53
3544;BME280;1786;52.870;9.578;2022-07-19T04:49:27;101041.06;;;32.33;41.23
3544;BME280;1786;52.870;9.578;2022-07-19T04:51:54;101037.75;;;32.62;40.57
3544;BME280;1786;52.870;9.578;2022-07-19T04:54:21;101039.84;;;32.90;40.58
3544;BME280;1786;52.870;9.578;2022-07-19T04:56:47;101040.78;;;33.14;40.86
3544;BME280;1786;52.870;9.578;2022-07-19T04:59:14;101040.78;;;33.14;40.35
3544;BME280;1786;52.870;9.578;2022-07-19T05:01:41;101037.91;;;33.09;40.80
3544;BME280;1786;52.870;9.578;2022-07-19T05:04:14;101044.72;;;33.30;39.68
3544;BME280;1786;52.870;9.578;2022-07-19T05:06:40;101042.34;;;33.69;39.85
3544;BME280;1786;52.870;9.578;2022-07-19T05:09:09;101040.09;;;33.77;40.80
3544;BME280;1786;52.870;9.578;2022-07-19T05:11:36;101037.31;;;34.13;40.49
3544;BME280;1786;52.870;9.578;2022-07-19T05:14:03;101046.06;;;34.38;40.82
3544;BME280;1786;52.870;9.578;2022-07-19T05:16:30;101050.75;;;34.55;39.52
3544;BME280;1786;52.870;9.578;2022-07-19T05:18:56;101053.38;;;34.61;39.74
3544;BME280;1786;52.870;9.578;2022-07-19T05:21:23;101050.66;;;34.50;41.03
3544;BME280;1786;52.870;9.578;2022-07-19T05:23:49;101056.22;;;34.55;39.81
3544;BME280;1786;52.870;9.578;2022-07-19T05:26:16;101045.47;;;34.36;40.75
3544;BME280;1786;52.870;9.578;2022-07-19T05:28:43;101050.84;;;34.88;39.63
3544;BME280;1786;52.870;9.578;2022-07-19T05:31:09;101056.38;;;35.56;38.30
3544;BME280;1786;52.870;9.578;2022-07-19T05:33:36;101056.97;;;35.97;38.94
3544;BME280;1786;52.870;9.578;2022-07-19T05:36:03;101067.56;;;37.73;36.95
3544;BME280;1786;52.870;9.578;2022-07-19T05:38:30;101079.84;;;39.89;34.88
3544;BME280;1786;52.870;9.578;2022-07-19T05:41:00;101087.94;;;41.63;33.24
3544;BME280;1786;52.870;9.578;2022-07-19T05:43:27;101098.00;;;43.40;31.45
3544;BME280;1786;52.870;9.578;2022-07-19T05:45:54;101110.59;;;44.62;29.15
3544;BME280;1786;52.870;9.578;2022-07-19T05:48:21;101113.56;;;45.78;29.27
3544;BME280;1786;52.870;9.578;2022-07-19T05:50:47;101122.34;;;47.03;27.56
3544;BME280;1786;52.870;9.578;2022-07-19T05:53:14;101116.72;;;47.85;27.21
3544;BME280;1786;52.870;9.578;2022-07-19T05:55:43;101127.56;;;48.25;26.05
3544;BME280;1786;52.870;9.578;2022-07-19T05:58:10;101121.09;;;48.54;25.85
3544;BME280;1786;52.870;9.578;2022-07-19T06:00:37;101120.34;;;48.87;26.53
3544;BME280;1786;52.870;9.578;2022-07-19T06:03:03;101123.34;;;49.36;25.52
3544;BME280;1786;52.870;9.578;2022-07-19T06:05:30;101121.41;;;50.23;25.82
3544;BME280;1786;52.870;9.578;2022-07-19T06:07:57;101128.75;;;50.28;25.05
3544;BME280;1786;52.870;9.578;2022-07-19T06:10:24;101132.00;;;50.95;24.55
3544;BME280;1786;52.870;9.578;2022-07-19T06:12:50;101133.41;;;51.61;24.16
3544;BME280;1786;52.870;9.578;2022-07-19T06:15:17;101147.28;;;52.01;24.55
3544;BME280;1786;52.870;9.578;2022-07-19T06:17:44;101147.06;;;53.00;23.06
3544;BME280;1786;52.870;9.578;2022-07-19T06:20:10;101155.28;;;53.97;23.06
3544;BME280;1786;52.870;9.578;2022-07-19T06:22:37;101149.88;;;54.12;22.99
3544;BME280;1786;52.870;9.578;2022-07-19T06:25:04;101149.50;;;54.43;22.99
3544;BME280;1786;52.870;9.578;2022-07-19T06:27:33;101145.50;;;54.44;23.11
3544;BME280;1786;52.870;9.578;2022-07-19T06:29:59;101151.63;;;55.59;22.28
3544;BME280;1786;52.870;9.578;2022-07-19T06:32:27;101144.84;;;55.29;22.59
3544;BME280;1786;52.870;9.578;2022-07-19T06:34:54;101145.97;;;55.62;22.11
3544;BME280;1786;52.870;9.578;2022-07-19T06:37:21;101152.00;;;56.05;21.44
3544;BME280;1786;52.870;9.578;2022-07-19T06:39:48;101151.56;;;56.80;21.16
3544;BME280;1786;52.870;9.578;2022-07-19T06:42:15;101150.38;;;56.81;21.13
3544;BME280;1786;52.870;9.578;2022-07-19T06:44:43;101153.19;;;56.74;21.05
3544;BME280;1786;52.870;9.578;2022-07-19T06:47:10;101151.28;;;56.19;22.06
3544;BME280;1786;52.870;9.578;2022-07-19T06:49:36;101158.06;;;56.04;21.48
3544;BME280;1786;52.870;9.578;2022-07-19T06:52:03;101157.31;;;56.17;22.30
3544;BME280;1786;52.870;9.578;2022-07-19T06:54:34;101151.44;;;56.51;21.37
3544;BME280;1786;52.870;9.578;2022-07-19T06:57:01;101149.41;;;55.86;22.22
3544;BME280;1786;52.870;9.578;2022-07-19T06:59:28;101151.94;;;56.75;21.05
3544;BME280;1786;52.870;9.578;2022-07-19T07:01:54;101151.38;;;56.33;21.56
3544;BME280;1786;52.870;9.578;2022-07-19T07:04:21;101147.91;;;55.51;22.09
3544;BME280;1786;52.870;9.578;2022-07-19T07:07:00;101143.09;;;54.46;22.58
3544;BME280;1786;52.870;9.578;2022-07-19T07:09:27;101147.22;;;54.26;22.53
3544;BME280;1786;52.870;9.578;2022-07-19T07:11:54;101142.88;;;53.79;23.34
3544;BME280;1786;52.870;9.578;2022-07-19T07:14:20;101143.84;;;54.43;22.29
3544;BME280;1786;52.870;9.578;2022-07-19T07:16:47;101151.38;;;54.05;22.66
3544;BME280;1786;52.870;9.578;2022-07-19T07:19:14;101144.66;;;53.41;24.16
3544;BME280;1786;52.870;9.578;2022-07-19T07:21:40;101149.47;;;53.63;23.03
3544;BME280;1786;52.870;9.578;2022-07-19T07:24:07;101137.56;;;53.51;23.74
3544;BME280;1786;52.870;9.578;2022-07-19T07:26:33;101143.25;;;53.77;23.34
3544;BME280;1786;52.870;9.578;2022-07-19T07:29:00;101138.34;;;54.54;23.37
3544;BME280;1786;52.870;9.578;2022-07-19T07:31:27;101134.03;;;54.67;23.15
3544;BME280;1786;52.870;9.578;2022-07-19T07:33:54;101127.81;;;54.55;22.59
3544;BME280;1786;52.870;9.578;2022-07-19T07:36:21;101132.69;;;54.28;22.54
3544;BME280;1786;52.870;9.578;2022-07-19T07:38:48;101135.13;;;53.99;23.13
3544;BME280;1786;52.870;9.578;2022-07-19T07:41:14;101134.00;;;53.34;23.27
3544;BME280;1786;52.870;9.578;2022-07-19T07:44:02;101134.47;;;52.55;23.13
3544;BME280;1786;52.870;9.578;2022-07-19T07:46:31;101123.00;;;52.48;23.24
3544;BME280;1786;52.870;9.578;2022-07-19T07:48:58;101114.50;;;52.28;23.23
3544;BME280;1786;52.870;9.578;2022-07-19T07:51:33;101112.31;;;52.22;23.83
3544;BME280;1786;52.870;9.578;2022-07-19T07:54:11;101107.66;;;52.29;23.22
3544;BME280;1786;52.870;9.578;2022-07-19T07:56:38;101117.66;;;52.43;23.14
3544;BME280;1786;52.870;9.578;2022-07-19T07:59:05;101116.50;;;52.28;23.11
3544;BME280;1786;52.870;9.578;2022-07-19T08:01:31;101118.88;;;52.81;23.11
3544;BME280;1786;52.870;9.578;2022-07-19T08:03:59;101114.38;;;52.99;22.68
3544;BME280;1786;52.870;9.578;2022-07-19T08:06:26;101125.81;;;52.67;23.45
3544;BME280;1786;52.870;9.578;2022-07-19T08:08:53;101125.97;;;53.13;22.67
3544;BME280;1786;52.870;9.578;2022-07-19T08:11:21;101117.38;;;53.06;23.15
3544;BME280;1786;52.870;9.578;2022-07-19T08:13:47;101118.50;;;53.25;22.83
3544;BME280;1786;52.870;9.578;2022-07-19T08:16:14;101127.91;;;53.55;22.53
3544;BME280;1786;52.870;9.578;2022-07-19T08:18:43;101117.91;;;52.18;23.01
3544;BME280;1786;52.870;9.578;2022-07-19T08:21:10;101120.44;;;52.23;22.54
3544;BME280;1786;52.870;9.578;2022-07-19T08:23:37;101117.81;;;51.35;23.25
3544;BME280;1786;52.870;9.578;2022-07-19T08:26:04;101108.94;;;50.89;23.97
3544;BME280;1786;52.870;9.578;2022-07-19T08:28:31;101097.75;;;50.64;23.96
3544;BME280;1786;52.870;9.578;2022-07-19T08:30:58;101100.22;;;50.13;23.74
3544;BME280;1786;52.870;9.578;2022-07-19T08:33:37;101084.56;;;50.40;24.36
3544;BME280;1786;52.870;9.578;2022-07-19T08:36:05;101089.19;;;50.20;23.82
3544;BME280;1786;52.870;9.578;2022-07-19T08:38:32;101095.47;;;50.30;24.02
3544;BME280;1786;52.870;9.578;2022-07-19T08:40:59;101093.97;;;50.20;24.31
3544;BME280;1786;52.870;9.578;2022-07-19T08:43:27;101087.94;;;50.06;24.20
3544;BME280;1786;52.870;9.578;2022-07-19T08:46:00;101085.22;;;49.48;24.10
3544;BME280;1786;52.870;9.578;2022-07-19T08:48:34;101093.03;;;49.42;23.92
3544;BME280;1786;52.870;9.578;2022-07-19T08:51:12;101082.25;;;49.32;23.65
3544;BME280;1786;52.870;9.578;2022-07-19T08:53:39;101093.72;;;48.93;23.81
3544;BME280;1786;52.870;9.578;2022-07-19T08:56:07;101077.97;;;48.80;24.01
3544;BME280;1786;52.870;9.578;2022-07-19T08:58:55;101072.13;;;48.01;24.79
3544;BME280;1786;52.870;9.578;2022-07-19T09:01:22;101074.53;;;48.11;24.51
3544;BME280;1786;52.870;9.578;2022-07-19T09:04:06;101084.84;;;48.49;24.80
3544;BME280;1786;52.870;9.578;2022-07-19T09:06:45;101076.47;;;47.90;23.51
3544;BME280;1786;52.870;9.578;2022-07-19T09:09:14;101066.56;;;47.93;23.96
3544;BME280;1786;52.870;9.578;2022-07-19T09:11:44;101072.34;;;47.96;23.98
3544;BME280;1786;52.870;9.578;2022-07-19T09:14:27;101069.25;;;48.40;25.27
3544;BME280;1786;52.870;9.578;2022-07-19T09:17:06;101071.13;;;48.48;24.31
3544;BME280;1786;52.870;9.578;2022-07-19T09:19:38;101076.88;;;48.93;24.74
3544;BME280;1786;52.870;9.578;2022-07-19T09:22:13;101070.75;;;48.58;23.94
3544;BME280;1786;52.870;9.578;2022-07-19T09:24:42;101066.50;;;47.72;24.38
3544;BME280;1786;52.870;9.578;2022-07-19T09:27:14;101065.16;;;48.07;23.98
3544;BME280;1786;52.870;9.578;2022-07-19T09:29:44;101064.66;;;47.37;24.22
3544;BME280;1786;52.870;9.578;2022-07-19T09:32:15;101059.47;;;46.92;23.97
3544;BME280;1786;52.870;9.578;2022-07-19T09:35:03;101061.25;;;47.23;24.98
3544;BME280;1786;52.870;9.578;2022-07-19T09:37:32;101064.38;;;47.21;24.86
3544;BME280;1786;52.870;9.578;2022-07-19T09:40:03;101066.75;;;46.32;25.02
3544;BME280;1786;52.870;9.578;2022-07-19T09:42:52;101059.16;;;46.33;24.58
3544;BME280;1786;52.870;9.578;2022-07-19T09:45:19;101060.94;;;46.29;25.59
3544;BME280;1786;52.870;9.578;2022-07-19T09:47:47;101048.72;;;45.98;25.61
3544;BME280;1786;52.870;9.578;2022-07-19T09:50:17;101044.81;;;46.17;24.38
3544;BME280;1786;52.870;9.578;2022-07-19T09:52:47;101047.47;;;46.66;25.19
3544;BME280;1786;52.870;9.578;2022-07-19T09:55:16;101047.78;;;46.99;26.19
3544;BME280;1786;52.870;9.578;2022-07-19T09:57:48;101049.91;;;47.96;25.24
3544;BME280;1786;52.870;9.578;2022-07-19T10:00:21;101051.13;;;47.86;24.85
3544;BME280;1786;52.870;9.578;2022-07-19T10:02:51;101042.38;;;46.68;24.96
3544;BME280;1786;52.870;9.578;2022-07-19T10:05:19;101048.28;;;47.01;23.81
3544;BME280;1786;52.870;9.578;2022-07-19T10:07:47;101054.69;;;47.10;24.16
3544;BME280;1786;52.870;9.578;2022-07-19T10:10:16;101042.97;;;47.25;24.76
3544;BME280;1786;52.870;9.578;2022-07-19T10:12:45;101043.09;;;47.76;23.75
3544;BME280;1786;52.870;9.578;2022-07-19T10:15:16;101046.63;;;48.15;24.94
3544;BME280;1786;52.870;9.578;2022-07-19T10:18:01;101048.13;;;49.09;23.99
3544;BME280;1786;52.870;9.578;2022-07-19T10:20:30;101047.75;;;48.23;23.80
3544;BME280;1786;52.870;9.578;2022-07-19T10:22:59;101030.00;;;48.19;24.91
3544;BME280;1786;52.870;9.578;2022-07-19T10:25:38;101035.78;;;47.54;23.63
3544;BME280;1786;52.870;9.578;2022-07-19T10:28:05;101024.19;;;47.26;23.44
3544;BME280;1786;52.870;9.578;2022-07-19T10:30:40;101015.81;;;47.17;25.24
3544;BME280;1786;52.870;9.578;2022-07-19T10:33:27;101022.91;;;46.97;22.97
3544;BME280;1786;52.870;9.578;2022-07-19T10:35:54;101013.38;;;46.98;22.75
3544;BME280;1786;52.870;9.578;2022-07-19T10:38:21;101014.41;;;47.41;23.01
3544;BME280;1786;52.870;9.578;2022-07-19T10:40:50;101014.34;;;47.88;24.00
3544;BME280;1786;52.870;9.578;2022-07-19T10:43:19;101023.81;;;48.04;22.75
3544;BME280;1786;52.870;9.578;2022-07-19T10:48:49;101001.31;;;47.15;23.86
3544;BME280;1786;52.870;9.578;2022-07-19T10:51:30;101002.69;;;47.77;24.30
3544;BME280;1786;52.870;9.578;2022-07-19T10:54:07;101007.31;;;47.82;23.55
3544;BME280;1786;52.870;9.578;2022-07-19T10:56:37;101000.97;;;48.15;23.93
3544;BME280;1786;52.870;9.578;2022-07-19T10:59:30;101002.47;;;47.91;22.94
3544;BME280;1786;52.870;9.578;2022-07-19T11:01:58;101002.78;;;47.60;22.87
3544;BME280;1786;52.870;9.578;2022-07-19T11:04:47;101002.72;;;47.98;24.02
3544;BME280;1786;52.870;9.578;2022-07-19T11:07:20;100992.69;;;47.97;22.95
3544;BME280;1786;52.870;9.578;2022-07-19T11:09:54;100999.13;;;47.30;23.37
3544;BME280;1786;52.870;9.578;2022-07-19T11:12:26;100996.56;;;47.07;23.80
3544;BME280;1786;52.870;9.578;2022-07-19T11:14:53;100993.22;;;46.58;23.95
3544;BME280;1786;52.870;9.578;2022-07-19T11:17:40;100985.81;;;46.45;23.72
3544;BME280;1786;52.870;9.578;2022-07-19T11:20:09;100984.81;;;46.75;23.05
3544;BME280;1786;52.870;9.578;2022-07-19T11:22:43;100983.69;;;47.23;22.68
3544;BME280;1786;52.870;9.578;2022-07-19T11:25:11;100978.63;;;46.99;23.51
3544;BME280;1786;52.870;9.578;2022-07-19T11:27:44;100982.19;;;46.18;24.43
3544;BME280;1786;52.870;9.578;2022-07-19T11:30:13;100973.09;;;46.91;23.59
3544;BME280;1786;52.870;9.578;2022-07-19T11:32:42;100979.56;;;47.59;24.00
3544;BME280;1786;52.870;9.578;2022-07-19T11:35:11;100972.00;;;47.21;22.88
3544;BME280;1786;52.870;9.578;2022-07-19T11:37:40;100964.00;;;46.94;23.37
3544;BME280;1786;52.870;9.578;2022-07-19T11:40:08;100959.22;;;46.94;23.03
3544;BME280;1786;52.870;9.578;2022-07-19T11:42:38;100962.44;;;47.61;21.96
3544;BME280;1786;52.870;9.578;2022-07-19T11:45:25;100956.63;;;47.66;23.79
3544;BME280;1786;52.870;9.578;2022-07-19T11:47:55;100955.59;;;47.71;23.87
3544;BME280;1786;52.870;9.578;2022-07-19T11:50:25;100955.66;;;47.92;23.40
3544;BME280;1786;52.870;9.578;2022-07-19T11:52:57;100955.50;;;47.88;23.14
3544;BME280;1786;52.870;9.578;2022-07-19T11:55:38;100956.75;;;47.99;23.65
3544;BME280;1786;52.870;9.578;2022-07-19T11:58:06;100959.75;;;47.35;23.24
3544;BME280;1786;52.870;9.578;2022-07-19T12:00:35;100941.31;;;46.87;23.72
3544;BME280;1786;52.870;9.578;2022-07-19T12:03:06;100941.22;;;47.13;23.18
3544;BME280;1786;52.870;9.578;2022-07-19T12:05:35;100941.59;;;47.02;24.80
3544;BME280;1786;52.870;9.578;2022-07-19T12:08:05;100945.94;;;47.30;23.33
3544;BME280;1786;52.870;9.578;2022-07-19T12:10:44;100939.38;;;47.55;22.96
3544;BME280;1786;52.870;9.578;2022-07-19T12:13:27;100947.81;;;47.76;22.52
3544;BME280;1786;52.870;9.578;2022-07-19T12:15:56;100939.97;;;47.90;23.37
3544;BME280;1786;52.870;9.578;2022-07-19T12:18:45;100937.56;;;47.59;22.62
3544;BME280;1786;52.870;9.578;2022-07-19T12:24:24;100932.16;;;47.54;23.11
3544;BME280;1786;52.870;9.578;2022-07-19T12:29:26;100920.44;;;47.82;22.86
3544;BME280;1786;52.870;9.578;2022-07-19T12:31:56;100920.00;;;48.34;22.13
3544;BME280;1786;52.870;9.578;2022-07-19T12:34:24;100920.38;;;48.90;23.34
3544;BME280;1786;52.870;9.578;2022-07-19T12:36:51;100918.88;;;48.47;22.71
3544;BME280;1786;52.870;9.578;2022-07-19T12:39:23;100916.16;;;48.18;23.00
3544;BME280;1786;52.870;9.578;2022-07-19T12:42:01;100923.31;;;47.94;23.00
3544;BME280;1786;52.870;9.578;2022-07-19T12:44:29;100917.59;;;48.45;23.33
3544;BME280;1786;52.870;9.578;2022-07-19T12:46:56;100927.88;;;48.53;21.91
3544;BME280;1786;52.870;9.578;2022-07-19T12:49:46;100912.88;;;48.16;23.40
3544;BME280;1786;52.870;9.578;2022-07-19T12:52:13;100912.53;;;47.84;23.88
3544;BME280;1786;52.870;9.578;2022-07-19T12:54:39;100925.75;;;47.96;23.25
3544;BME280;1786;52.870;9.578;2022-07-19T12:57:06;100913.84;;;47.57;22.87
3544;BME280;1786;52.870;9.578;2022-07-19T12:59:33;100909.78;;;47.96;22.67
3544;BME280;1786;52.870;9.578;2022-07-19T13:02:13;100915.63;;;47.61;22.51
3544;BME280;1786;52.870;9.578;2022-07-19T13:04:43;100911.25;;;47.43;22.61
3544;BME280;1786;52.870;9.578;2022-07-19T13:07:11;100908.44;;;48.15;23.04
3544;BME280;1786;52.870;9.578;2022-07-19T13:09:38;100904.69;;;48.65;22.63
3544;BME280;1786;52.870;9.578;2022-07-19T13:12:07;100908.19;;;50.13;21.69
3544;BME280;1786;52.870;9.578;2022-07-19T13:14:34;100914.63;;;48.74;22.09
3544;BME280;1786;52.870;9.578;2022-07-19T13:17:02;100913.97;;;48.44;22.61
3544;BME280;1786;52.870;9.578;2022-07-19T13:19:29;100912.81;;;49.28;22.75
3544;BME280;1786;52.870;9.578;2022-07-19T13:21:56;100907.59;;;48.68;22.52
3544;BME280;1786;52.870;9.578;2022-07-19T13:24:24;100909.84;;;48.75;22.18
3544;BME280;1786;52.870;9.578;2022-07-19T13:27:11;100902.03;;;49.42;22.19